Terminal Aerodrome Forecast
Issued by NWS

Home | Current Version | Previous Version | Text Only | Print | Product List | Glossary On
Versions: 1 2 3 4 5 6 7 8 9 10 11 12 13 14 15 16
710
FTUS43 KEAX 261515 AAA
TAFSTJ
TAF AMD
KSTJ 261515Z 2615/2712 19010KT P6SM FEW035 SCT100
      TEMPO 2616/2618 2SM +TSRA BKN035CB
     FM261900 17013G22KT P6SM VCTS BKN040CB
      TEMPO 2623/2703 3SM -TSRA BKN025CB=

USA.gov is the U.S. government's official web portal to all federal, state and local government web resources and services.